Time;durP1;ratioP1;P1;durP2;ratioP2;P2;SDS_P1;SDS_P2;PMS_P1;PMS_P2;Temp;Humidity;BMP_temperature;BMP_pressure;BME280_temperature;BME280_humidity;BME280_pressure;Samples;Min_cycle;Max_cycle;Signal;HPM_P1;HPM_P2
2022/02/05 00:00:42;;;;;;;5.17;1.30;;;4.70;99.90;;;;;;5069092;28;20304;-58
2022/02/05 00:03:28;;;;;;;7.10;1.73;;;4.70;99.90;;;;;;5069465;28;20213;-58
2022/02/05 00:05:59;;;;;;;6.03;1.57;;;4.80;99.90;;;;;;5072821;28;20831;-56
2022/02/05 00:13:46;;;;;;;2.80;1.17;;;4.80;99.90;;;;;;5084187;28;20202;-60
2022/02/05 00:40:57;;;;;;;8.10;1.43;;;4.80;99.90;;;;;;5087166;28;20205;-60
2022/02/05 00:43:24;;;;;;;4.23;1.30;;;4.80;99.90;;;;;;5092927;28;20733;-59
2022/02/05 00:45:54;;;;;;;3.70;1.00;;;4.80;99.90;;;;;;5084684;28;20712;-62
2022/02/05 00:48:24;;;;;;;5.53;1.43;;;4.80;99.90;;;;;;5084284;28;20202;-59
2022/02/05 00:50:57;;;;;;;6.30;1.60;;;4.80;99.90;;;;;;5086153;28;20304;-60
2022/02/05 00:53:34;;;;;;;6.73;1.40;;;4.80;99.90;;;;;;5084982;28;20207;-55
2022/02/05 00:56:26;;;;;;;3.87;1.30;;;4.80;99.90;;;;;;5086453;28;20251;-57
2022/02/05 00:58:52;;;;;;;5.07;1.57;;;4.80;99.90;;;;;;5086905;28;20693;-58
2022/02/05 01:01:19;;;;;;;3.67;1.20;;;4.70;99.90;;;;;;5088229;28;20611;-62
2022/02/05 01:03:46;;;;;;;2.93;1.00;;;4.70;99.90;;;;;;5082453;28;20262;-58
2022/02/05 01:06:13;;;;;;;4.80;1.10;;;4.70;99.90;;;;;;5085692;28;20640;-59
2022/02/05 01:08:43;;;;;;;3.83;1.40;;;4.70;99.90;;;;;;5095357;28;21716;-60
2022/02/05 01:11:11;;;;;;;6.33;1.23;;;4.60;99.90;;;;;;5080695;28;20261;-59
2022/02/05 01:13:38;;;;;;;4.57;1.37;;;4.60;99.90;;;;;;5077954;28;20211;-59
2022/02/05 01:16:23;;;;;;;3.43;1.07;;;4.60;99.90;;;;;;5079056;28;20252;-62
2022/02/05 01:18:50;;;;;;;5.40;1.60;;;4.70;99.90;;;;;;5075280;28;20203;-59
2022/02/05 01:23:53;;;;;;;5.97;1.50;;;4.90;99.90;;;;;;5071361;28;20735;-58
2022/02/05 01:26:33;;;;;;;7.37;1.90;;;4.70;99.90;;;;;;5074353;28;20190;-59
2022/02/05 01:29:09;;;;;;;4.00;1.50;;;4.70;99.90;;;;;;5080603;28;20426;-57
2022/02/05 01:31:45;;;;;;;4.33;1.20;;;4.60;99.90;;;;;;5081155;28;20198;-59
2022/02/05 01:58:52;;;;;;;2.77;1.00;;;4.40;99.90;;;;;;5074781;28;20215;-57
2022/02/05 02:12:12;;;;;;;8.03;1.63;;;4.40;99.90;;;;;;5074237;28;20482;-59
2022/02/05 02:20:49;;;;;;;4.80;1.30;;;4.50;99.90;;;;;;5076581;28;20633;-59
2022/02/05 02:22:47;;;;;;;7.90;2.03;;;4.50;99.90;;;;;;5065327;28;20587;-60
2022/02/05 02:30:22;;;;;;;6.97;2.43;;;4.60;99.90;;;;;;5071430;28;20255;-62
2022/02/05 02:32:57;;;;;;;9.67;1.40;;;4.60;99.90;;;;;;5059793;28;20237;-59
2022/02/05 02:35:28;;;;;;;6.53;1.40;;;4.60;99.90;;;;;;5073485;28;20202;-58
2022/02/05 02:38:07;;;;;;;6.70;1.17;;;4.50;99.90;;;;;;5074642;28;20274;-57
2022/02/05 02:43:06;;;;;;;7.10;2.20;;;4.50;99.90;;;;;;5077470;28;20620;-58
2022/02/05 02:45:34;;;;;;;3.40;1.10;;;4.60;99.90;;;;;;5073338;28;20588;-58
2022/02/05 02:48:01;;;;;;;5.07;1.20;;;4.60;99.90;;;;;;5059226;28;20253;-56
2022/02/05 02:50:33;;;;;;;4.17;1.30;;;4.50;99.90;;;;;;5073518;28;20295;-59
2022/02/05 02:58:41;;;;;;;7.83;1.60;;;4.40;99.90;;;;;;5055179;28;20922;-58
2022/02/05 03:01:10;;;;;;;7.67;1.77;;;4.40;99.90;;;;;;5074958;28;20240;-58
2022/02/05 03:03:37;;;;;;;5.27;1.63;;;4.40;99.90;;;;;;5055976;28;21351;-57
2022/02/05 03:06:04;;;;;;;6.90;1.13;;;4.40;99.90;;;;;;5075891;28;20583;-57
2022/02/05 03:08:31;;;;;;;5.50;1.43;;;4.50;99.90;;;;;;5071225;28;20199;-59
2022/02/05 03:10:58;;;;;;;9.03;2.20;;;4.50;99.90;;;;;;5073764;28;20613;-59
2022/02/05 03:13:24;;;;;;;3.43;1.10;;;4.50;99.90;;;;;;5076293;28;20232;-58
2022/02/05 03:15:52;;;;;;;9.23;1.60;;;4.40;99.90;;;;;;5075944;28;20213;-57
2022/02/05 03:20:55;;;;;;;4.10;1.40;;;4.40;99.90;;;;;;5071835;28;20762;-58
2022/02/05 03:23:22;;;;;;;7.47;1.43;;;4.30;99.90;;;;;;5075735;28;20658;-57
2022/02/05 03:25:49;;;;;;;5.83;1.67;;;4.40;99.90;;;;;;5052835;28;20292;-59
2022/02/05 03:28:16;;;;;;;10.77;1.63;;;4.40;99.90;;;;;;5072127;28;20206;-59
2022/02/05 03:30:44;;;;;;;6.17;1.27;;;4.60;99.90;;;;;;5070372;28;20660;-60
2022/02/05 03:33:11;;;;;;;7.50;1.20;;;4.60;99.90;;;;;;5072364;28;20301;-55
2022/02/05 03:35:37;;;;;;;6.57;1.57;;;4.50;99.90;;;;;;5071734;28;20299;-59
2022/02/05 03:38:04;;;;;;;5.47;1.50;;;4.50;99.90;;;;;;5054370;28;20209;-56
2022/02/05 03:40:31;;;;;;;4.00;1.43;;;4.50;99.90;;;;;;5073763;28;20691;-62
2022/02/05 03:42:58;;;;;;;7.10;1.23;;;4.50;99.90;;;;;;5069136;28;20351;-58
2022/02/05 03:45:25;;;;;;;3.00;1.20;;;4.50;99.90;;;;;;5074440;28;20260;-59
2022/02/05 03:47:52;;;;;;;6.27;1.13;;;4.60;99.90;;;;;;5075984;28;20217;-59
2022/02/05 03:50:22;;;;;;;4.17;1.50;;;4.50;99.90;;;;;;5072929;28;20210;-57
2022/02/05 03:52:49;;;;;;;7.10;1.20;;;4.50;99.90;;;;;;5076448;28;20271;-58
2022/02/05 03:55:16;;;;;;;5.47;1.70;;;4.50;99.90;;;;;;5069646;28;20657;-59
2022/02/05 03:57:46;;;;;;;5.40;1.10;;;4.50;99.90;;;;;;5075600;28;20653;-58
2022/02/05 04:00:13;;;;;;;8.30;1.20;;;4.50;99.90;;;;;;5072172;28;20275;-59
2022/02/05 04:02:40;;;;;;;6.63;1.33;;;4.50;99.90;;;;;;5074266;28;20237;-59
2022/02/05 04:05:08;;;;;;;7.10;1.50;;;4.50;99.90;;;;;;5073136;28;20577;-60
2022/02/05 04:07:40;;;;;;;7.90;1.83;;;4.60;99.90;;;;;;5072277;28;20230;-59
2022/02/05 04:10:09;;;;;;;5.10;1.00;;;4.60;99.90;;;;;;5069265;28;20320;-56
2022/02/05 04:18:06;;;;;;;10.20;1.83;;;4.40;99.90;;;;;;5077575;28;20213;-57
2022/02/05 04:20:34;;;;;;;8.50;1.87;;;4.40;99.90;;;;;;5075679;28;20209;-57
2022/02/05 04:23:01;;;;;;;6.27;1.57;;;4.20;99.90;;;;;;5078046;28;20225;-57
2022/02/05 04:25:28;;;;;;;9.73;2.33;;;4.10;99.90;;;;;;5074548;28;20654;-59
2022/02/05 04:27:55;;;;;;;8.03;1.90;;;4.10;99.90;;;;;;5076393;28;20209;-59
2022/02/05 04:30:22;;;;;;;11.30;2.40;;;4.10;99.90;;;;;;5072376;28;20646;-60
2022/02/05 04:32:49;;;;;;;9.37;2.47;;;4.10;99.90;;;;;;5075328;28;21559;-63
2022/02/05 04:35:21;;;;;;;7.30;2.13;;;4.20;99.90;;;;;;5073297;28;20202;-59
2022/02/05 04:37:54;;;;;;;6.83;1.90;;;4.10;99.90;;;;;;5059685;28;20685;-57
2022/02/05 04:40:30;;;;;;;9.77;2.47;;;4.30;99.90;;;;;;5071854;28;20209;-59
2022/02/05 04:56:27;;;;;;;9.43;2.20;;;4.20;99.90;;;;;;5076875;28;20244;-59
2022/02/05 05:20:24;;;;;;;8.10;2.90;;;4.00;99.90;;;;;;5075312;28;20205;-60
2022/02/05 05:22:51;;;;;;;6.53;2.30;;;4.00;99.90;;;;;;5079330;28;20663;-59
2022/02/05 05:25:18;;;;;;;7.77;2.43;;;3.90;99.90;;;;;;5074152;28;20291;-58
2022/02/05 05:27:45;;;;;;;6.67;2.87;;;3.90;99.90;;;;;;5076728;28;20304;-59
2022/02/05 05:30:12;;;;;;;5.37;3.03;;;3.80;99.90;;;;;;5073714;28;20202;-57
2022/02/05 05:32:39;;;;;;;9.63;3.37;;;3.80;99.90;;;;;;5080428;28;20199;-57
2022/02/05 05:35:07;;;;;;;7.77;3.73;;;3.90;99.90;;;;;;5057914;28;20325;-56
2022/02/05 05:37:35;;;;;;;7.13;3.27;;;3.80;99.90;;;;;;5075345;28;20203;-56
2022/02/05 05:40:02;;;;;;;8.97;3.30;;;3.70;99.90;;;;;;5072631;28;20364;-56
2022/02/05 05:42:36;;;;;;;8.47;3.10;;;3.70;99.90;;;;;;5075161;28;20609;-56
2022/02/05 05:47:52;;;;;;;9.60;3.30;;;3.80;99.90;;;;;;5065668;28;20209;-56
2022/02/05 05:53:10;;;;;;;10.77;3.73;;;3.80;99.90;;;;;;5077782;28;20615;-56
2022/02/05 05:55:45;;;;;;;5.60;2.83;;;3.90;99.90;;;;;;5077087;28;20300;-57
2022/02/05 05:58:17;;;;;;;14.27;3.33;;;3.90;99.90;;;;;;5076895;28;20690;-57
2022/02/05 06:00:45;;;;;;;7.27;3.40;;;3.90;99.90;;;;;;5072644;28;20593;-56
2022/02/05 06:03:12;;;;;;;11.60;3.20;;;4.10;99.90;;;;;;5078306;28;20222;-61
2022/02/05 06:05:39;;;;;;;9.33;3.30;;;4.10;99.90;;;;;;5074753;28;20228;-56
2022/02/05 06:08:10;;;;;;;8.63;3.20;;;4.10;99.90;;;;;;5060434;28;20232;-56
2022/02/05 06:10:37;;;;;;;6.77;2.77;;;4.00;99.90;;;;;;5074191;28;20701;-56
2022/02/05 06:13:04;;;;;;;9.80;2.97;;;4.10;99.90;;;;;;5079685;28;20319;-57
2022/02/05 06:15:31;;;;;;;7.17;3.23;;;4.10;99.90;;;;;;5078007;28;20517;-57
2022/02/05 06:17:58;;;;;;;10.10;2.80;;;4.00;99.90;;;;;;5075538;28;20206;-57
2022/02/05 06:20:25;;;;;;;7.40;2.67;;;4.00;99.90;;;;;;5051835;28;20198;-55
2022/02/05 06:22:51;;;;;;;6.00;3.10;;;4.00;99.90;;;;;;5060644;28;20214;-56
2022/02/05 06:25:18;;;;;;;7.43;2.80;;;3.90;99.90;;;;;;5062018;28;20272;-55
2022/02/05 06:27:45;;;;;;;4.73;2.43;;;3.90;99.90;;;;;;5081378;28;20252;-55
2022/02/05 06:30:12;;;;;;;7.53;2.73;;;4.00;99.90;;;;;;5077110;28;20198;-55
2022/02/05 06:32:41;;;;;;;7.47;2.80;;;4.00;99.90;;;;;;5062278;28;20784;-55
2022/02/05 06:35:10;;;;;;;7.97;3.00;;;4.00;99.90;;;;;;5077058;28;20242;-55
2022/02/05 06:37:37;;;;;;;8.47;3.27;;;4.00;99.90;;;;;;5074416;28;20215;-55
2022/02/05 06:40:08;;;;;;;11.87;2.90;;;4.00;99.90;;;;;;5077715;28;20238;-57
2022/02/05 06:42:35;;;;;;;9.27;2.73;;;4.00;99.90;;;;;;5076473;28;20891;-57
2022/02/05 06:45:03;;;;;;;7.70;2.97;;;4.00;99.90;;;;;;5077491;28;22107;-55
2022/02/05 06:47:31;;;;;;;6.20;3.03;;;4.10;99.90;;;;;;5060037;28;20749;-58
2022/02/05 06:49:58;;;;;;;9.70;3.40;;;4.20;99.90;;;;;;5073167;28;20344;-56
2022/02/05 06:52:25;;;;;;;10.03;2.87;;;4.10;99.90;;;;;;5080525;28;20280;-57
2022/02/05 06:54:51;;;;;;;10.00;2.60;;;4.00;99.90;;;;;;5078457;28;20203;-59
2022/02/05 06:57:18;;;;;;;7.73;3.00;;;4.00;99.90;;;;;;5079376;28;20231;-56
2022/02/05 06:59:45;;;;;;;10.60;2.63;;;4.00;99.90;;;;;;5076125;28;20238;-56
2022/02/05 07:02:12;;;;;;;7.60;3.10;;;3.90;99.90;;;;;;5056328;28;20277;-56
2022/02/05 07:04:39;;;;;;;6.70;3.20;;;3.90;99.90;;;;;;5059599;28;20211;-56
2022/02/05 07:07:06;;;;;;;9.37;3.33;;;3.80;99.90;;;;;;5078701;28;20345;-56
2022/02/05 07:09:33;;;;;;;8.33;3.60;;;3.70;99.90;;;;;;5075566;28;20329;-56
2022/02/05 07:12:01;;;;;;;5.83;3.47;;;3.70;99.90;;;;;;5057588;28;20329;-56
2022/02/05 07:14:35;;;;;;;10.07;3.90;;;3.60;99.90;;;;;;5080272;28;20204;-57
2022/02/05 07:17:19;;;;;;;8.67;3.50;;;3.50;99.90;;;;;;5079097;28;20202;-56
2022/02/05 07:22:16;;;;;;;9.90;3.50;;;3.50;99.90;;;;;;5082788;28;20269;-56
2022/02/05 07:30:14;;;;;;;7.70;3.83;;;3.40;99.90;;;;;;5076938;28;20678;-57
2022/02/05 07:32:54;;;;;;;8.40;3.80;;;3.50;99.90;;;;;;5077868;28;20252;-57
2022/02/05 07:35:21;;;;;;;6.87;3.53;;;3.50;99.90;;;;;;5077099;28;20339;-56
2022/02/05 07:37:52;;;;;;;12.77;3.80;;;3.50;99.90;;;;;;5077511;28;20304;-56
2022/02/05 07:40:19;;;;;;;9.00;4.30;;;3.50;99.90;;;;;;5059719;28;20252;-56
2022/02/05 07:42:46;;;;;;;11.17;4.47;;;3.60;99.90;;;;;;5078741;28;20326;-56
2022/02/05 07:45:13;;;;;;;6.20;3.83;;;3.70;99.90;;;;;;5073503;28;20217;-56
2022/02/05 07:47:40;;;;;;;8.03;4.10;;;3.60;99.90;;;;;;5080095;28;20289;-56
2022/02/05 07:50:07;;;;;;;10.10;3.93;;;3.60;99.90;;;;;;5072021;28;20274;-55
2022/02/05 07:52:35;;;;;;;7.73;3.90;;;3.60;99.90;;;;;;5073175;28;20211;-55
2022/02/05 07:55:01;;;;;;;6.57;3.47;;;3.60;99.90;;;;;;5076693;28;20273;-57
2022/02/05 07:57:30;;;;;;;9.30;3.40;;;3.60;99.90;;;;;;5064015;28;20625;-56
2022/02/05 07:59:56;;;;;;;13.43;4.10;;;3.60;99.90;;;;;;5073625;28;20672;-55
2022/02/05 08:02:23;;;;;;;8.97;4.37;;;3.70;99.90;;;;;;5078944;28;20243;-55
2022/02/05 08:04:50;;;;;;;7.73;4.20;;;3.70;99.90;;;;;;5077935;28;20278;-55
2022/02/05 08:07:17;;;;;;;9.37;4.30;;;3.90;99.90;;;;;;5060640;28;20443;-57
2022/02/05 08:12:19;;;;;;;7.77;4.77;;;4.00;99.90;;;;;;5080634;28;20235;-57
2022/02/05 08:14:48;;;;;;;7.43;3.60;;;4.10;99.90;;;;;;5075863;28;20203;-56
2022/02/05 08:17:22;;;;;;;7.40;3.70;;;4.00;99.90;;;;;;5077354;28;20278;-60
2022/02/05 08:19:49;;;;;;;8.87;4.30;;;4.00;99.90;;;;;;5076264;28;20435;-58
2022/02/05 08:22:21;;;;;;;8.23;4.07;;;3.90;99.90;;;;;;5076970;28;20217;-57
2022/02/05 08:24:48;;;;;;;6.73;3.03;;;4.00;99.90;;;;;;5073113;28;21009;-56
2022/02/05 08:27:16;;;;;;;11.70;3.47;;;4.10;99.90;;;;;;5073710;28;20190;-55
2022/02/05 08:29:56;;;;;;;9.53;4.20;;;4.10;99.90;;;;;;5056501;28;20218;-57
2022/02/05 08:32:25;;;;;;;16.77;4.40;;;4.20;99.90;;;;;;5078885;28;20389;-56
2022/02/05 08:34:53;;;;;;;8.80;3.27;;;4.20;99.90;;;;;;5062229;28;20277;-56
2022/02/05 08:37:20;;;;;;;8.10;3.83;;;4.40;99.90;;;;;;5058022;28;20206;-57
2022/02/05 08:39:47;;;;;;;12.67;3.63;;;4.40;99.90;;;;;;5074442;28;20203;-56
2022/02/05 08:42:14;;;;;;;6.00;3.33;;;4.40;99.90;;;;;;5077678;28;20490;-56
2022/02/05 08:44:41;;;;;;;8.03;3.87;;;4.40;99.90;;;;;;5079817;28;20225;-56
2022/02/05 08:47:09;;;;;;;11.30;3.47;;;4.40;99.90;;;;;;5058815;28;20267;-56
2022/02/05 08:49:36;;;;;;;7.13;3.80;;;4.60;99.90;;;;;;5072756;28;20289;-58
2022/02/05 08:52:07;;;;;;;5.13;3.13;;;4.60;99.90;;;;;;5073055;28;20279;-57
2022/02/05 08:54:35;;;;;;;12.80;4.03;;;4.60;99.90;;;;;;5077812;28;20298;-60
2022/02/05 08:57:03;;;;;;;7.63;2.83;;;4.70;99.90;;;;;;5075509;28;21985;-57
2022/02/05 08:59:41;;;;;;;9.80;3.27;;;4.80;99.90;;;;;;5054857;28;20208;-57
2022/02/05 09:02:15;;;;;;;6.00;3.30;;;4.90;99.90;;;;;;5041873;28;20230;-56
2022/02/05 09:04:53;;;;;;;10.17;3.63;;;4.90;99.90;;;;;;5075194;28;20303;-56
2022/02/05 09:07:20;;;;;;;8.50;3.40;;;5.00;99.90;;;;;;5054560;28;21609;-57
2022/02/05 09:10:05;;;;;;;10.63;3.30;;;5.30;99.90;;;;;;5070794;28;20332;-55
2022/02/05 09:12:55;;;;;;;10.17;3.27;;;5.50;99.90;;;;;;5067099;28;20226;-56
2022/02/05 09:15:19;;;;;;;8.40;2.73;;;5.60;99.90;;;;;;5063260;28;20212;-56
2022/02/05 09:17:46;;;;;;;7.10;3.40;;;6.00;99.90;;;;;;5061246;28;20216;-57
2022/02/05 09:20:13;;;;;;;9.37;3.20;;;6.40;99.90;;;;;;5047809;28;20440;-56
2022/02/05 09:22:40;;;;;;;7.40;2.90;;;6.50;99.90;;;;;;5065337;28;20219;-56
2022/02/05 09:25:07;;;;;;;5.43;2.47;;;6.90;99.90;;;;;;5057264;28;20248;-57
2022/02/05 09:27:39;;;;;;;4.97;2.33;;;6.90;99.90;;;;;;5060459;28;20254;-55
2022/02/05 09:30:13;;;;;;;8.37;2.93;;;7.10;99.90;;;;;;5023839;28;20290;-56
2022/02/05 09:32:41;;;;;;;8.13;3.00;;;7.30;99.90;;;;;;5038433;28;20248;-56
2022/02/05 09:35:09;;;;;;;12.57;3.63;;;7.70;99.90;;;;;;5067094;28;20212;-56
2022/02/05 09:37:35;;;;;;;7.73;2.23;;;7.80;99.90;;;;;;5061699;28;20200;-58
2022/02/05 09:40:04;;;;;;;4.47;2.30;;;7.70;99.90;;;;;;5058375;28;20303;-57
2022/02/05 09:42:31;;;;;;;7.00;2.47;;;8.10;99.90;;;;;;5071967;28;20269;-57
2022/02/05 09:45:02;;;;;;;7.40;2.30;;;7.70;99.90;;;;;;5071588;28;20306;-57
2022/02/05 09:47:29;;;;;;;7.73;2.20;;;8.00;99.90;;;;;;5071207;28;20251;-57
2022/02/05 09:49:56;;;;;;;6.40;2.00;;;7.80;99.90;;;;;;5067247;28;20349;-58
2022/02/05 09:52:25;;;;;;;6.67;2.30;;;7.80;99.90;;;;;;5064734;28;20622;-57
2022/02/05 09:54:52;;;;;;;6.53;2.50;;;7.60;99.90;;;;;;5066821;28;20228;-57
2022/02/05 09:57:20;;;;;;;7.47;2.47;;;7.50;99.90;;;;;;5067323;28;20304;-57
2022/02/05 09:59:54;;;;;;;8.60;2.33;;;7.30;99.90;;;;;;5064880;28;20544;-56
2022/02/05 10:02:21;;;;;;;10.93;2.43;;;7.00;99.90;;;;;;5054817;28;20690;-56
2022/02/05 10:04:57;;;;;;;8.00;2.43;;;7.30;99.90;;;;;;5056993;28;20209;-57
2022/02/05 10:07:55;;;;;;;6.63;2.23;;;7.60;99.90;;;;;;5063424;28;20207;-62
2022/02/05 10:10:22;;;;;;;8.50;2.30;;;7.80;99.90;;;;;;5058066;28;20379;-62
2022/02/05 10:13:18;;;;;;;11.20;2.30;;;7.90;99.90;;;;;;5050903;28;20872;-63
2022/02/05 10:15:53;;;;;;;9.53;2.10;;;7.70;99.90;;;;;;5062617;28;20655;-62
2022/02/05 10:18:31;;;;;;;9.00;2.00;;;7.70;99.90;;;;;;5059793;28;20772;-56
2022/02/05 10:21:01;;;;;;;7.30;2.60;;;7.50;99.90;;;;;;5063623;28;20707;-56
2022/02/05 10:23:30;;;;;;;5.73;2.20;;;7.70;99.90;;;;;;5061906;28;20230;-58
2022/02/05 10:25:57;;;;;;;11.20;2.07;;;7.70;99.90;;;;;;5061168;28;20633;-55
2022/02/05 10:28:24;;;;;;;4.77;2.33;;;7.50;99.90;;;;;;5064601;28;20609;-55
2022/02/05 10:30:54;;;;;;;8.57;1.97;;;7.70;99.90;;;;;;5063033;28;20690;-56
2022/02/05 10:33:29;;;;;;;6.87;2.00;;;8.00;99.90;;;;;;5063806;28;20237;-56
2022/02/05 10:36:14;;;;;;;11.97;2.20;;;8.00;99.90;;;;;;5057615;28;20263;-57
2022/02/05 10:44:12;;;;;;;11.80;2.07;;;7.80;99.90;;;;;;5050024;28;20460;-56
2022/02/05 10:46:44;;;;;;;6.00;1.57;;;8.00;99.90;;;;;;5051229;28;20729;-56
2022/02/05 10:49:12;;;;;;;9.13;1.83;;;8.10;99.90;;;;;;5058189;28;20225;-55
2022/02/05 10:51:46;;;;;;;8.13;2.10;;;7.70;99.90;;;;;;5056707;28;20615;-55
2022/02/05 10:54:23;;;;;;;9.53;2.23;;;7.60;99.90;;;;;;5057395;28;20226;-55
2022/02/05 10:57:18;;;;;;;8.93;2.30;;;8.00;99.90;;;;;;5060316;28;20212;-56
2022/02/05 11:05:50;;;;;;;8.63;2.17;;;7.70;99.90;;;;;;5058045;28;21029;-55
2022/02/05 11:08:20;;;;;;;8.40;3.20;;;7.70;99.90;;;;;;5058160;28;20206;-55
2022/02/05 11:18:56;;;;;;;7.00;2.37;;;8.00;99.90;;;;;;5069658;28;20627;-56
2022/02/05 11:21:44;;;;;;;2.93;1.70;;;7.70;99.90;;;;;;5062648;28;20431;-57
2022/02/05 11:24:12;;;;;;;8.93;1.77;;;7.50;99.90;;;;;;5069311;28;20305;-57
2022/02/05 11:26:40;;;;;;;7.97;1.90;;;7.50;99.90;;;;;;5064340;28;20228;-57
2022/02/05 11:29:07;;;;;;;4.97;1.57;;;7.80;99.90;;;;;;5054454;28;20607;-56
2022/02/05 11:34:37;;;;;;;5.00;1.80;;;7.60;99.90;;;;;;5065880;28;20689;-56
2022/02/05 11:37:09;;;;;;;5.20;1.90;;;7.80;99.90;;;;;;5066920;28;20217;-57
2022/02/05 11:39:46;;;;;;;5.47;1.93;;;8.20;99.90;;;;;;5061913;28;20200;-58
2022/02/05 11:42:36;;;;;;;9.60;1.87;;;8.20;99.90;;;;;;5066306;28;20198;-57
2022/02/05 11:45:22;;;;;;;5.97;1.90;;;7.90;99.90;;;;;;5042816;28;20228;-56
2022/02/05 11:47:49;;;;;;;9.37;1.83;;;7.70;99.90;;;;;;5091278;28;20203;-57
2022/02/05 11:50:21;;;;;;;6.93;2.00;;;7.80;99.90;;;;;;5088145;28;20846;-56
2022/02/05 11:52:48;;;;;;;9.37;1.57;;;7.60;99.90;;;;;;5090963;28;20634;-57
2022/02/05 11:55:27;;;;;;;6.50;2.73;;;7.60;98.20;;;;;;5089362;28;20216;-57
2022/02/05 11:57:56;;;;;;;6.47;1.50;;;7.40;99.90;;;;;;5081444;28;20281;-57
2022/02/05 12:00:40;;;;;;;7.33;1.90;;;7.30;99.90;;;;;;5087614;28;20210;-58
2022/02/05 12:03:32;;;;;;;10.67;1.97;;;7.50;99.90;;;;;;5056755;28;20323;-57
2022/02/05 12:06:09;;;;;;;3.53;1.20;;;7.80;1.00;;;;;;5085249;28;20230;-56
2022/02/05 12:08:41;;;;;;;4.17;1.70;;;8.40;1.00;;;;;;5085690;28;20246;-56
2022/02/05 12:11:34;;;;;;;8.47;1.53;;;9.10;1.00;;;;;;5088962;28;20247;-57
2022/02/05 12:14:14;;;;;;;7.00;1.53;;;9.10;1.00;;;;;;5057496;28;20257;-56
2022/02/05 12:17:10;;;;;;;8.40;1.90;;;8.90;1.00;;;;;;5039087;28;20218;-57
2022/02/05 12:20:00;;;;;;;6.43;2.33;;;8.90;1.00;;;;;;5050716;28;20210;-57
2022/02/05 12:26:09;;;;;;;4.43;1.40;;;9.20;1.00;;;;;;5052781;28;20201;-58
2022/02/05 12:28:44;;;;;;;8.70;1.60;;;9.70;1.00;;;;;;5054449;28;20204;-58
2022/02/05 12:31:17;;;;;;;4.77;1.83;;;9.30;33.60;;;;;;5054040;28;21475;-57
2022/02/05 12:34:02;;;;;;;4.10;1.53;;;9.10;99.90;;;;;;5054567;28;20672;-57
2022/02/05 12:36:37;;;;;;;5.37;1.77;;;9.10;99.90;;;;;;5040128;28;20298;-56
2022/02/05 12:39:10;;;;;;;6.47;1.90;;;9.30;99.90;;;;;;5053904;28;20200;-56
2022/02/05 12:41:44;;;;;;;3.33;1.43;;;8.80;99.90;;;;;;5051543;28;20289;-57
2022/02/05 12:44:11;;;;;;;6.90;1.67;;;9.20;99.90;;;;;;5051392;28;20214;-57
2022/02/05 12:47:02;;;;;;;3.57;1.70;;;9.50;99.90;;;;;;5053152;28;20674;-58
2022/02/05 12:49:41;;;;;;;5.23;2.10;;;9.30;99.90;;;;;;5053228;28;20381;-56
2022/02/05 12:52:09;;;;;;;6.90;1.73;;;9.20;99.90;;;;;;5055474;28;20229;-55
2022/02/05 12:54:45;;;;;;;7.67;2.03;;;9.10;99.90;;;;;;5053463;28;20232;-56
2022/02/05 12:57:17;;;;;;;5.83;2.07;;;9.60;99.90;;;;;;5053026;28;20680;-57
2022/02/05 12:59:45;;;;;;;5.20;1.93;;;9.80;37.10;;;;;;5050267;28;20209;-57
2022/02/05 13:02:14;;;;;;;6.47;1.67;;;10.10;1.00;;;;;;5052029;28;20300;-58
2022/02/05 13:04:55;;;;;;;5.40;2.00;;;10.30;1.00;;;;;;5051915;28;20251;-57
2022/02/05 13:07:26;;;;;;;6.47;2.00;;;9.70;1.70;;;;;;5051626;28;21032;-58
2022/02/05 13:10:00;;;;;;;5.10;2.30;;;9.30;1.00;;;;;;5051353;28;20302;-58
2022/02/05 13:12:30;;;;;;;5.13;2.07;;;9.20;48.40;;;;;;5060720;28;20708;-57
2022/02/05 13:34:26;;;;;;;7.63;2.50;;;8.60;25.50;;;;;;5081796;28;20207;-57
2022/02/05 13:37:33;;;;;;;4.47;2.47;;;8.40;93.40;;;;;;5079934;28;20267;-57
2022/02/05 13:40:00;;;;;;;8.60;2.43;;;8.30;11.80;;;;;;5077368;28;20239;-57
2022/02/05 13:42:33;;;;;;;3.63;2.20;;;8.50;22.30;;;;;;5082746;28;20305;-57
2022/02/05 13:45:18;;;;;;;6.50;2.70;;;8.40;98.00;;;;;;5063417;28;20297;-58
2022/02/05 13:47:44;;;;;;;7.80;2.60;;;8.60;88.10;;;;;;5083587;28;20229;-57
2022/02/05 13:50:26;;;;;;;7.37;2.30;;;8.60;34.20;;;;;;5081247;28;20199;-57
2022/02/05 13:53:06;;;;;;;3.33;2.20;;;8.50;47.40;;;;;;5075755;28;20204;-57
2022/02/05 13:55:40;;;;;;;4.73;2.07;;;8.40;61.20;;;;;;5062950;28;20725;-57
2022/02/05 13:58:08;;;;;;;3.70;1.93;;;8.20;68.60;;;;;;5081070;28;20203;-57
2022/02/05 14:01:02;;;;;;;5.07;2.07;;;8.10;98.70;;;;;;5062964;28;20583;-57
2022/02/05 14:03:37;;;;;;;4.60;2.17;;;8.20;99.90;;;;;;5081506;28;20210;-56
2022/02/05 14:06:13;;;;;;;5.70;1.43;;;8.10;99.90;;;;;;5062832;28;20518;-57
2022/02/05 14:08:46;;;;;;;4.77;1.70;;;8.10;99.90;;;;;;5062611;28;20371;-57
2022/02/05 14:11:15;;;;;;;4.17;1.93;;;8.10;99.90;;;;;;5079869;28;20198;-56
2022/02/05 14:13:42;;;;;;;6.63;1.77;;;8.20;99.90;;;;;;5073365;28;20240;-56
2022/02/05 14:16:10;;;;;;;4.63;2.03;;;8.50;89.40;;;;;;5072998;28;20199;-56
2022/02/05 14:18:56;;;;;;;6.53;1.70;;;8.50;45.80;;;;;;5080489;28;20293;-57
2022/02/05 14:21:52;;;;;;;5.60;1.63;;;8.30;91.60;;;;;;5086917;28;20270;-57
2022/02/05 14:24:25;;;;;;;5.80;1.90;;;8.30;99.90;;;;;;5085353;28;20250;-56
2022/02/05 14:27:01;;;;;;;6.83;1.73;;;8.20;99.90;;;;;;5089826;28;20207;-57
2022/02/05 14:29:37;;;;;;;8.20;1.80;;;8.20;99.90;;;;;;5088058;28;20293;-56
2022/02/05 14:32:12;;;;;;;6.97;1.80;;;8.20;99.90;;;;;;5088905;28;20346;-56
2022/02/05 14:35:33;;;;;;;4.80;1.90;;;8.10;99.90;;;;;;5089511;28;20198;-57
2022/02/05 14:43:12;;;;;;;4.73;1.70;;;8.10;99.90;;;;;;5056293;28;20317;-56
2022/02/05 14:45:39;;;;;;;4.67;1.80;;;8.30;99.90;;;;;;5060786;28;20564;-56
2022/02/05 14:48:06;;;;;;;8.33;2.07;;;8.40;99.90;;;;;;5062103;28;20711;-57
2022/02/05 14:50:33;;;;;;;5.80;1.80;;;8.50;99.90;;;;;;5084402;28;20187;-56
2022/02/05 14:53:00;;;;;;;6.07;2.20;;;8.50;99.90;;;;;;5090288;28;20226;-57
2022/02/05 14:55:28;;;;;;;5.40;2.07;;;8.40;99.90;;;;;;5092339;28;20668;-57
2022/02/05 14:57:54;;;;;;;10.97;2.17;;;8.50;99.90;;;;;;5092899;28;20199;-57
2022/02/05 15:00:22;;;;;;;8.60;2.03;;;8.50;99.90;;;;;;5088587;28;20310;-57
2022/02/05 15:02:50;;;;;;;5.43;2.20;;;8.40;99.90;;;;;;5089098;28;20282;-58
2022/02/05 15:05:18;;;;;;;5.60;1.90;;;8.50;99.90;;;;;;5067141;28;20225;-57
2022/02/05 15:07:45;;;;;;;7.87;1.90;;;8.50;99.90;;;;;;5088979;28;20243;-57
2022/02/05 15:10:15;;;;;;;7.90;2.13;;;8.40;99.90;;;;;;5087739;28;20253;-57
2022/02/05 15:12:42;;;;;;;10.07;2.30;;;8.40;99.90;;;;;;5090738;28;20297;-57
2022/02/05 15:15:15;;;;;;;5.63;2.30;;;8.40;99.90;;;;;;5085484;28;20407;-57
2022/02/05 15:17:43;;;;;;;3.67;2.10;;;8.40;99.90;;;;;;5086913;28;20717;-58
2022/02/05 15:20:12;;;;;;;7.40;2.00;;;8.30;99.90;;;;;;5086435;28;20194;-56
2022/02/05 15:22:44;;;;;;;4.13;2.30;;;8.40;99.90;;;;;;5076144;28;20301;-57
2022/02/05 15:25:12;;;;;;;4.67;1.93;;;8.30;99.90;;;;;;5088346;28;20268;-55
2022/02/05 15:27:40;;;;;;;5.97;2.27;;;8.30;99.90;;;;;;5088365;28;20190;-57
2022/02/05 15:30:08;;;;;;;4.87;1.70;;;8.30;99.90;;;;;;5070563;28;20662;-57
2022/02/05 15:32:35;;;;;;;8.50;2.30;;;8.30;99.90;;;;;;5089440;28;20209;-57
2022/02/05 15:35:04;;;;;;;9.17;2.50;;;8.30;99.90;;;;;;5084424;28;20249;-57
2022/02/05 15:37:31;;;;;;;5.00;2.13;;;8.20;99.90;;;;;;5081421;28;20262;-57
2022/02/05 15:45:16;;;;;;;4.90;2.17;;;8.10;99.90;;;;;;5082575;28;20214;-57
2022/02/05 15:47:43;;;;;;;6.93;2.47;;;8.10;99.90;;;;;;5081331;28;20234;-57
2022/02/05 15:50:12;;;;;;;4.93;1.97;;;8.10;99.90;;;;;;5079689;28;20741;-57
2022/02/05 15:52:39;;;;;;;6.97;2.30;;;8.10;99.90;;;;;;5087149;28;20199;-55
2022/02/05 15:55:09;;;;;;;5.27;1.80;;;8.10;99.90;;;;;;5076352;28;20311;-55
2022/02/05 15:57:59;;;;;;;6.90;1.83;;;8.10;99.90;;;;;;5080486;28;20922;-56
2022/02/05 16:00:31;;;;;;;1.93;1.47;;;8.10;99.90;;;;;;5082714;28;20684;-57
2022/02/05 16:03:01;;;;;;;7.83;2.27;;;8.10;99.90;;;;;;5082716;28;20659;-57
2022/02/05 16:05:29;;;;;;;5.60;1.90;;;8.00;99.90;;;;;;5074493;28;20701;-57
2022/02/05 16:07:56;;;;;;;7.10;2.10;;;8.00;99.90;;;;;;5080636;28;20203;-56
2022/02/05 16:10:23;;;;;;;5.03;1.77;;;8.00;99.90;;;;;;5066477;28;20358;-57
2022/02/05 16:12:51;;;;;;;4.00;1.90;;;7.90;99.90;;;;;;5070731;28;20815;-57
2022/02/05 16:15:18;;;;;;;6.83;1.60;;;7.90;99.90;;;;;;5055102;28;20753;-56
2022/02/05 16:17:48;;;;;;;8.77;2.20;;;7.90;99.90;;;;;;5057606;28;20700;-56
2022/02/05 16:20:18;;;;;;;6.57;1.60;;;7.80;99.90;;;;;;5057727;28;20598;-56
2022/02/05 16:22:45;;;;;;;5.27;1.60;;;7.90;99.90;;;;;;5057392;28;20261;-60
2022/02/05 16:25:14;;;;;;;4.77;1.63;;;7.80;99.90;;;;;;5059453;28;20299;-56
2022/02/05 16:27:43;;;;;;;9.63;1.93;;;7.80;99.90;;;;;;5052317;28;20268;-57
2022/02/05 16:30:10;;;;;;;7.73;1.70;;;7.80;99.90;;;;;;5032270;28;20288;-55
2022/02/05 16:32:37;;;;;;;7.33;3.00;;;7.80;99.90;;;;;;5050512;28;20292;-59
2022/02/05 16:35:09;;;;;;;6.67;1.50;;;7.80;99.90;;;;;;5054773;28;20208;-54
2022/02/05 16:37:38;;;;;;;4.87;1.47;;;7.80;99.90;;;;;;5051385;28;20860;-56